sensor_id;sensor_type;location;lat;lon;timestamp;temperature;humidity
11304;DHT22;5707;49.588;12.148;2023-09-18T00:02:19;12.20;99.90
11304;DHT22;5707;49.588;12.148;2023-09-18T00:04:44;12.20;99.90
11304;DHT22;5707;49.588;12.148;2023-09-18T00:07:10;12.00;99.90
11304;DHT22;5707;49.588;12.148;2023-09-18T00:09:36;12.00;99.90
11304;DHT22;5707;49.588;12.148;2023-09-18T00:12:01;12.00;99.90
11304;DHT22;5707;49.588;12.148;2023-09-18T00:14:27;12.00;99.90
11304;DHT22;5707;49.588;12.148;2023-09-18T00:16:53;12.00;99.90
11304;DHT22;5707;49.588;12.148;2023-09-18T00:19:18;12.00;99.90
11304;DHT22;5707;49.588;12.148;2023-09-18T00:21:44;12.00;99.90
11304;DHT22;5707;49.588;12.148;2023-09-18T00:24:10;12.00;99.90
11304;DHT22;5707;49.588;12.148;2023-09-18T00:26:37;12.00;99.90
11304;DHT22;5707;49.588;12.148;2023-09-18T00:29:02;12.00;99.90
11304;DHT22;5707;49.588;12.148;2023-09-18T00:31:28;12.00;99.90
11304;DHT22;5707;49.588;12.148;2023-09-18T00:33:53;12.00;99.90
11304;DHT22;5707;49.588;12.148;2023-09-18T00:36:19;11.90;99.90
11304;DHT22;5707;49.588;12.148;2023-09-18T00:38:44;11.80;99.90
11304;DHT22;5707;49.588;12.148;2023-09-18T00:41:11;11.70;99.90
11304;DHT22;5707;49.588;12.148;2023-09-18T00:43:37;11.70;99.90
11304;DHT22;5707;49.588;12.148;2023-09-18T00:46:03;11.70;99.90
11304;DHT22;5707;49.588;12.148;2023-09-18T00:48:29;11.60;99.90
11304;DHT22;5707;49.588;12.148;2023-09-18T00:50:55;11.60;99.90
11304;DHT22;5707;49.588;12.148;2023-09-18T00:53:23;11.60;99.90
11304;DHT22;5707;49.588;12.148;2023-09-18T00:55:53;11.60;99.90
11304;DHT22;5707;49.588;12.148;2023-09-18T00:58:19;11.60;99.90
11304;DHT22;5707;49.588;12.148;2023-09-18T01:00:44;11.60;99.90
11304;DHT22;5707;49.588;12.148;2023-09-18T01:03:10;11.50;99.90
11304;DHT22;5707;49.588;12.148;2023-09-18T01:05:36;11.50;99.90
11304;DHT22;5707;49.588;12.148;2023-09-18T01:08:02;11.50;99.90
11304;DHT22;5707;49.588;12.148;2023-09-18T01:10:34;11.50;99.90
11304;DHT22;5707;49.588;12.148;2023-09-18T01:13:11;11.50;99.90
11304;DHT22;5707;49.588;12.148;2023-09-18T01:15:51;11.50;99.90
11304;DHT22;5707;49.588;12.148;2023-09-18T01:18:17;11.40;99.90
11304;DHT22;5707;49.588;12.148;2023-09-18T01:20:44;11.40;99.90
11304;DHT22;5707;49.588;12.148;2023-09-18T01:23:10;11.40;99.90
11304;DHT22;5707;49.588;12.148;2023-09-18T01:25:37;11.40;99.90
11304;DHT22;5707;49.588;12.148;2023-09-18T01:28:03;11.40;99.90
11304;DHT22;5707;49.588;12.148;2023-09-18T01:30:28;11.40;99.90
11304;DHT22;5707;49.588;12.148;2023-09-18T01:32:56;11.40;99.90
11304;DHT22;5707;49.588;12.148;2023-09-18T01:35:22;11.60;99.90
11304;DHT22;5707;49.588;12.148;2023-09-18T01:37:58;11.50;99.90
11304;DHT22;5707;49.588;12.148;2023-09-18T01:40:25;11.60;99.90
11304;DHT22;5707;49.588;12.148;2023-09-18T01:42:52;11.60;99.90
11304;DHT22;5707;49.588;12.148;2023-09-18T01:45:17;11.60;99.90
11304;DHT22;5707;49.588;12.148;2023-09-18T01:47:43;11.50;99.90
11304;DHT22;5707;49.588;12.148;2023-09-18T01:50:10;11.40;99.90
11304;DHT22;5707;49.588;12.148;2023-09-18T01:52:36;11.40;99.90
11304;DHT22;5707;49.588;12.148;2023-09-18T01:55:02;11.30;99.90
11304;DHT22;5707;49.588;12.148;2023-09-18T01:57:29;11.40;99.90
11304;DHT22;5707;49.588;12.148;2023-09-18T01:59:55;11.40;99.90
11304;DHT22;5707;49.588;12.148;2023-09-18T02:02:20;11.50;99.90
11304;DHT22;5707;49.588;12.148;2023-09-18T02:04:46;11.50;99.90
11304;DHT22;5707;49.588;12.148;2023-09-18T02:07:11;11.50;99.90
11304;DHT22;5707;49.588;12.148;2023-09-18T02:09:37;11.50;99.90
11304;DHT22;5707;49.588;12.148;2023-09-18T02:12:03;11.60;99.90
11304;DHT22;5707;49.588;12.148;2023-09-18T02:14:29;11.50;99.90
11304;DHT22;5707;49.588;12.148;2023-09-18T02:16:56;11.60;99.90
11304;DHT22;5707;49.588;12.148;2023-09-18T02:19:21;11.70;99.90
11304;DHT22;5707;49.588;12.148;2023-09-18T02:21:47;11.70;99.90
11304;DHT22;5707;49.588;12.148;2023-09-18T02:24:12;11.60;99.90
11304;DHT22;5707;49.588;12.148;2023-09-18T02:26:38;11.60;99.90
11304;DHT22;5707;49.588;12.148;2023-09-18T02:29:07;11.50;99.90
11304;DHT22;5707;49.588;12.148;2023-09-18T02:31:35;11.50;99.90
11304;DHT22;5707;49.588;12.148;2023-09-18T02:34:01;11.50;99.90
11304;DHT22;5707;49.588;12.148;2023-09-18T02:36:26;11.40;99.90
11304;DHT22;5707;49.588;12.148;2023-09-18T02:38:52;11.30;99.90
11304;DHT22;5707;49.588;12.148;2023-09-18T02:41:17;11.30;99.90
11304;DHT22;5707;49.588;12.148;2023-09-18T02:43:43;11.20;99.90
11304;DHT22;5707;49.588;12.148;2023-09-18T02:46:09;11.10;99.90
11304;DHT22;5707;49.588;12.148;2023-09-18T02:48:34;11.10;99.90
11304;DHT22;5707;49.588;12.148;2023-09-18T02:51:00;11.10;99.90
11304;DHT22;5707;49.588;12.148;2023-09-18T02:53:27;11.10;99.90
11304;DHT22;5707;49.588;12.148;2023-09-18T02:55:54;11.00;99.90
11304;DHT22;5707;49.588;12.148;2023-09-18T02:58:20;11.00;99.90
11304;DHT22;5707;49.588;12.148;2023-09-18T03:00:48;10.90;99.90
11304;DHT22;5707;49.588;12.148;2023-09-18T03:03:14;10.90;99.90
11304;DHT22;5707;49.588;12.148;2023-09-18T03:05:40;10.90;99.90
11304;DHT22;5707;49.588;12.148;2023-09-18T03:08:06;10.90;99.90
11304;DHT22;5707;49.588;12.148;2023-09-18T03:10:35;10.90;99.90
11304;DHT22;5707;49.588;12.148;2023-09-18T03:13:04;10.90;99.90
11304;DHT22;5707;49.588;12.148;2023-09-18T03:15:31;10.90;99.90
11304;DHT22;5707;49.588;12.148;2023-09-18T03:17:58;11.00;99.90
11304;DHT22;5707;49.588;12.148;2023-09-18T03:20:24;11.00;99.90
11304;DHT22;5707;49.588;12.148;2023-09-18T03:23:00;10.90;99.90
11304;DHT22;5707;49.588;12.148;2023-09-18T03:25:27;10.90;99.90
11304;DHT22;5707;49.588;12.148;2023-09-18T03:27:54;10.90;99.90
11304;DHT22;5707;49.588;12.148;2023-09-18T03:30:21;10.90;99.90
11304;DHT22;5707;49.588;12.148;2023-09-18T03:32:47;11.00;99.90
11304;DHT22;5707;49.588;12.148;2023-09-18T03:35:13;11.00;99.90
11304;DHT22;5707;49.588;12.148;2023-09-18T03:37:49;11.00;99.90
11304;DHT22;5707;49.588;12.148;2023-09-18T03:40:18;10.90;99.90
11304;DHT22;5707;49.588;12.148;2023-09-18T03:42:45;10.90;99.90
11304;DHT22;5707;49.588;12.148;2023-09-18T03:45:10;11.00;99.90
11304;DHT22;5707;49.588;12.148;2023-09-18T03:47:37;11.00;99.90
11304;DHT22;5707;49.588;12.148;2023-09-18T03:50:05;11.00;99.90
11304;DHT22;5707;49.588;12.148;2023-09-18T03:52:31;11.00;99.90
11304;DHT22;5707;49.588;12.148;2023-09-18T03:54:56;11.00;99.90
11304;DHT22;5707;49.588;12.148;2023-09-18T03:57:22;11.00;99.90
11304;DHT22;5707;49.588;12.148;2023-09-18T03:59:48;11.00;99.90
11304;DHT22;5707;49.588;12.148;2023-09-18T04:02:13;11.00;99.90
11304;DHT22;5707;49.588;12.148;2023-09-18T04:04:39;11.00;99.90
11304;DHT22;5707;49.588;12.148;2023-09-18T04:07:08;11.00;99.90
11304;DHT22;5707;49.588;12.148;2023-09-18T04:09:34;11.00;99.90
11304;DHT22;5707;49.588;12.148;2023-09-18T04:12:03;10.90;99.90
11304;DHT22;5707;49.588;12.148;2023-09-18T04:14:31;11.00;99.90
11304;DHT22;5707;49.588;12.148;2023-09-18T04:16:56;11.10;99.90
11304;DHT22;5707;49.588;12.148;2023-09-18T04:19:22;11.00;99.90
11304;DHT22;5707;49.588;12.148;2023-09-18T04:21:48;11.00;99.90
11304;DHT22;5707;49.588;12.148;2023-09-18T04:24:14;11.00;99.90
11304;DHT22;5707;49.588;12.148;2023-09-18T04:26:39;10.90;99.90
11304;DHT22;5707;49.588;12.148;2023-09-18T04:29:05;10.90;99.90
11304;DHT22;5707;49.588;12.148;2023-09-18T04:31:31;10.90;99.90
11304;DHT22;5707;49.588;12.148;2023-09-18T04:33:57;10.90;99.90
11304;DHT22;5707;49.588;12.148;2023-09-18T04:36:23;10.90;99.90
11304;DHT22;5707;49.588;12.148;2023-09-18T04:38:48;10.90;99.90
11304;DHT22;5707;49.588;12.148;2023-09-18T04:41:14;10.90;99.90
11304;DHT22;5707;49.588;12.148;2023-09-18T04:43:40;11.00;99.90
11304;DHT22;5707;49.588;12.148;2023-09-18T04:46:08;11.10;99.90
11304;DHT22;5707;49.588;12.148;2023-09-18T04:48:33;11.10;99.90
11304;DHT22;5707;49.588;12.148;2023-09-18T04:51:00;11.00;99.90
11304;DHT22;5707;49.588;12.148;2023-09-18T04:53:27;11.00;99.90
11304;DHT22;5707;49.588;12.148;2023-09-18T04:55:53;11.00;99.90
11304;DHT22;5707;49.588;12.148;2023-09-18T04:58:19;11.10;99.90
11304;DHT22;5707;49.588;12.148;2023-09-18T05:00:45;11.10;99.90
11304;DHT22;5707;49.588;12.148;2023-09-18T05:03:12;11.10;99.90
11304;DHT22;5707;49.588;12.148;2023-09-18T05:05:38;11.10;99.90
11304;DHT22;5707;49.588;12.148;2023-09-18T05:08:06;11.20;99.90
11304;DHT22;5707;49.588;12.148;2023-09-18T05:10:34;11.10;99.90
11304;DHT22;5707;49.588;12.148;2023-09-18T05:13:00;11.20;99.90
11304;DHT22;5707;49.588;12.148;2023-09-18T05:15:26;11.30;99.90
11304;DHT22;5707;49.588;12.148;2023-09-18T05:17:54;11.30;99.90
11304;DHT22;5707;49.588;12.148;2023-09-18T05:20:23;11.40;99.90
11304;DHT22;5707;49.588;12.148;2023-09-18T05:22:53;11.40;99.90
11304;DHT22;5707;49.588;12.148;2023-09-18T05:25:19;11.50;99.90
11304;DHT22;5707;49.588;12.148;2023-09-18T05:27:47;11.60;99.90
11304;DHT22;5707;49.588;12.148;2023-09-18T05:30:19;11.70;99.90
11304;DHT22;5707;49.588;12.148;2023-09-18T05:32:47;11.80;99.90
11304;DHT22;5707;49.588;12.148;2023-09-18T05:35:14;12.00;99.90
11304;DHT22;5707;49.588;12.148;2023-09-18T05:37:40;12.10;99.90
11304;DHT22;5707;49.588;12.148;2023-09-18T05:40:08;12.30;99.90
11304;DHT22;5707;49.588;12.148;2023-09-18T05:42:41;12.50;99.90
11304;DHT22;5707;49.588;12.148;2023-09-18T05:45:09;12.70;99.90
11304;DHT22;5707;49.588;12.148;2023-09-18T05:47:35;12.90;99.90
11304;DHT22;5707;49.588;12.148;2023-09-18T05:50:02;13.10;99.90
11304;DHT22;5707;49.588;12.148;2023-09-18T05:52:29;13.40;99.90
11304;DHT22;5707;49.588;12.148;2023-09-18T05:54:54;13.80;99.90
11304;DHT22;5707;49.588;12.148;2023-09-18T05:57:20;14.00;99.90
11304;DHT22;5707;49.588;12.148;2023-09-18T05:59:46;14.20;99.90
11304;DHT22;5707;49.588;12.148;2023-09-18T06:02:11;14.30;99.90
11304;DHT22;5707;49.588;12.148;2023-09-18T06:04:37;14.40;99.90
11304;DHT22;5707;49.588;12.148;2023-09-18T06:07:06;14.70;99.90
11304;DHT22;5707;49.588;12.148;2023-09-18T06:09:31;14.80;99.90
11304;DHT22;5707;49.588;12.148;2023-09-18T06:11:57;14.90;99.90
11304;DHT22;5707;49.588;12.148;2023-09-18T06:14:24;15.00;99.90
11304;DHT22;5707;49.588;12.148;2023-09-18T06:16:50;15.20;99.90
11304;DHT22;5707;49.588;12.148;2023-09-18T06:19:16;15.40;99.90
11304;DHT22;5707;49.588;12.148;2023-09-18T06:21:45;15.70;99.90
11304;DHT22;5707;49.588;12.148;2023-09-18T06:24:10;15.90;99.90
11304;DHT22;5707;49.588;12.148;2023-09-18T06:26:36;15.80;99.90
11304;DHT22;5707;49.588;12.148;2023-09-18T06:29:02;15.80;99.90
11304;DHT22;5707;49.588;12.148;2023-09-18T06:31:28;15.80;99.90
11304;DHT22;5707;49.588;12.148;2023-09-18T06:33:53;15.90;99.90
11304;DHT22;5707;49.588;12.148;2023-09-18T06:36:19;16.10;99.90
11304;DHT22;5707;49.588;12.148;2023-09-18T06:38:45;16.10;99.90
11304;DHT22;5707;49.588;12.148;2023-09-18T06:41:10;16.30;99.90
11304;DHT22;5707;49.588;12.148;2023-09-18T06:43:36;16.40;99.90
11304;DHT22;5707;49.588;12.148;2023-09-18T06:46:01;16.50;99.90
11304;DHT22;5707;49.588;12.148;2023-09-18T06:48:27;16.40;99.90
11304;DHT22;5707;49.588;12.148;2023-09-18T06:50:58;16.40;99.90
11304;DHT22;5707;49.588;12.148;2023-09-18T06:53:23;16.50;99.90
11304;DHT22;5707;49.588;12.148;2023-09-18T06:55:49;16.50;99.90
11304;DHT22;5707;49.588;12.148;2023-09-18T06:58:14;16.50;99.90
11304;DHT22;5707;49.588;12.148;2023-09-18T07:00:40;16.40;99.90
11304;DHT22;5707;49.588;12.148;2023-09-18T07:03:06;16.50;99.90
11304;DHT22;5707;49.588;12.148;2023-09-18T07:05:35;16.80;99.90
11304;DHT22;5707;49.588;12.148;2023-09-18T07:08:00;17.00;99.90
11304;DHT22;5707;49.588;12.148;2023-09-18T07:10:26;17.30;99.90
11304;DHT22;5707;49.588;12.148;2023-09-18T07:12:52;17.50;99.90
11304;DHT22;5707;49.588;12.148;2023-09-18T07:15:17;17.80;99.90
11304;DHT22;5707;49.588;12.148;2023-09-18T07:17:43;18.00;99.90
11304;DHT22;5707;49.588;12.148;2023-09-18T07:20:09;18.20;99.90
11304;DHT22;5707;49.588;12.148;2023-09-18T07:22:40;18.30;99.90
11304;DHT22;5707;49.588;12.148;2023-09-18T07:25:07;18.30;99.90
11304;DHT22;5707;49.588;12.148;2023-09-18T07:27:33;18.40;99.90
11304;DHT22;5707;49.588;12.148;2023-09-18T07:29:58;18.50;99.90
11304;DHT22;5707;49.588;12.148;2023-09-18T07:32:25;18.80;99.90
11304;DHT22;5707;49.588;12.148;2023-09-18T07:34:52;19.10;99.90
11304;DHT22;5707;49.588;12.148;2023-09-18T07:37:18;19.20;99.90
11304;DHT22;5707;49.588;12.148;2023-09-18T07:39:46;19.30;99.90
11304;DHT22;5707;49.588;12.148;2023-09-18T07:42:12;19.50;99.90
11304;DHT22;5707;49.588;12.148;2023-09-18T07:44:37;19.60;99.90
11304;DHT22;5707;49.588;12.148;2023-09-18T07:47:03;19.80;99.90
11304;DHT22;5707;49.588;12.148;2023-09-18T07:49:29;20.00;99.90
11304;DHT22;5707;49.588;12.148;2023-09-18T07:51:55;20.30;99.90
11304;DHT22;5707;49.588;12.148;2023-09-18T07:54:20;20.60;99.90
11304;DHT22;5707;49.588;12.148;2023-09-18T07:56:46;21.00;99.90
11304;DHT22;5707;49.588;12.148;2023-09-18T07:59:12;21.40;99.90
11304;DHT22;5707;49.588;12.148;2023-09-18T08:01:40;21.70;99.90
11304;DHT22;5707;49.588;12.148;2023-09-18T08:04:06;21.90;99.90
11304;DHT22;5707;49.588;12.148;2023-09-18T08:06:31;22.20;99.90
11304;DHT22;5707;49.588;12.148;2023-09-18T08:08:57;22.60;99.90
11304;DHT22;5707;49.588;12.148;2023-09-18T08:11:22;23.00;99.90
11304;DHT22;5707;49.588;12.148;2023-09-18T08:13:48;23.40;99.90
11304;DHT22;5707;49.588;12.148;2023-09-18T08:16:13;23.40;99.90
11304;DHT22;5707;49.588;12.148;2023-09-18T08:18:39;23.40;99.90
11304;DHT22;5707;49.588;12.148;2023-09-18T08:21:07;23.50;99.90
11304;DHT22;5707;49.588;12.148;2023-09-18T08:23:35;23.50;99.90
11304;DHT22;5707;49.588;12.148;2023-09-18T08:26:01;23.40;99.90
11304;DHT22;5707;49.588;12.148;2023-09-18T08:28:26;23.50;99.90
11304;DHT22;5707;49.588;12.148;2023-09-18T08:30:52;23.70;99.90
11304;DHT22;5707;49.588;12.148;2023-09-18T08:33:20;23.70;99.90
11304;DHT22;5707;49.588;12.148;2023-09-18T08:35:46;23.60;99.90
11304;DHT22;5707;49.588;12.148;2023-09-18T08:38:13;23.40;99.90
11304;DHT22;5707;49.588;12.148;2023-09-18T08:40:41;23.20;99.90
11304;DHT22;5707;49.588;12.148;2023-09-18T08:43:08;23.10;99.90
11304;DHT22;5707;49.588;12.148;2023-09-18T08:45:46;23.20;99.90
11304;DHT22;5707;49.588;12.148;2023-09-18T08:48:16;23.20;99.90
11304;DHT22;5707;49.588;12.148;2023-09-18T08:50:42;23.30;99.90
11304;DHT22;5707;49.588;12.148;2023-09-18T08:53:09;23.30;99.90
11304;DHT22;5707;49.588;12.148;2023-09-18T08:55:34;23.30;99.90
11304;DHT22;5707;49.588;12.148;2023-09-18T08:58:00;23.40;99.90
11304;DHT22;5707;49.588;12.148;2023-09-18T09:00:26;23.40;99.90
11304;DHT22;5707;49.588;12.148;2023-09-18T09:02:52;23.50;99.90
11304;DHT22;5707;49.588;12.148;2023-09-18T09:05:22;23.60;99.90
11304;DHT22;5707;49.588;12.148;2023-09-18T09:07:49;23.60;99.90
11304;DHT22;5707;49.588;12.148;2023-09-18T09:10:15;23.60;99.90
11304;DHT22;5707;49.588;12.148;2023-09-18T09:12:57;23.70;99.90
11304;DHT22;5707;49.588;12.148;2023-09-18T09:15:25;23.70;99.90
11304;DHT22;5707;49.588;12.148;2023-09-18T09:17:52;23.60;99.90
11304;DHT22;5707;49.588;12.148;2023-09-18T09:20:26;23.70;99.90
11304;DHT22;5707;49.588;12.148;2023-09-18T09:22:52;23.70;99.90
11304;DHT22;5707;49.588;12.148;2023-09-18T09:25:24;23.80;99.90
11304;DHT22;5707;49.588;12.148;2023-09-18T09:27:54;23.80;99.90
11304;DHT22;5707;49.588;12.148;2023-09-18T09:30:25;23.80;99.90
11304;DHT22;5707;49.588;12.148;2023-09-18T09:32:52;23.80;99.90
11304;DHT22;5707;49.588;12.148;2023-09-18T09:35:29;23.80;99.90
11304;DHT22;5707;49.588;12.148;2023-09-18T09:38:08;23.90;99.90
11304;DHT22;5707;49.588;12.148;2023-09-18T09:40:34;23.90;99.90
11304;DHT22;5707;49.588;12.148;2023-09-18T09:43:01;24.00;99.90
11304;DHT22;5707;49.588;12.148;2023-09-18T09:45:29;24.00;99.90
11304;DHT22;5707;49.588;12.148;2023-09-18T09:47:56;24.10;99.90
11304;DHT22;5707;49.588;12.148;2023-09-18T09:50:22;24.10;99.90
11304;DHT22;5707;49.588;12.148;2023-09-18T09:52:52;24.20;99.90
11304;DHT22;5707;49.588;12.148;2023-09-18T09:55:28;24.20;99.90
11304;DHT22;5707;49.588;12.148;2023-09-18T10:00:33;24.40;99.90
11304;DHT22;5707;49.588;12.148;2023-09-18T10:03:08;24.50;99.90
11304;DHT22;5707;49.588;12.148;2023-09-18T10:05:37;24.60;99.90
11304;DHT22;5707;49.588;12.148;2023-09-18T10:08:09;24.60;99.90
11304;DHT22;5707;49.588;12.148;2023-09-18T10:10:38;24.60;99.90
11304;DHT22;5707;49.588;12.148;2023-09-18T10:15:42;24.80;99.90
11304;DHT22;5707;49.588;12.148;2023-09-18T10:18:27;24.70;99.90
11304;DHT22;5707;49.588;12.148;2023-09-18T10:21:06;24.80;99.90
11304;DHT22;5707;49.588;12.148;2023-09-18T10:23:46;24.80;99.90
11304;DHT22;5707;49.588;12.148;2023-09-18T10:26:17;24.80;99.90
11304;DHT22;5707;49.588;12.148;2023-09-18T10:28:46;24.80;99.90
11304;DHT22;5707;49.588;12.148;2023-09-18T10:31:14;24.90;99.90
11304;DHT22;5707;49.588;12.148;2023-09-18T10:33:40;25.00;99.90
11304;DHT22;5707;49.588;12.148;2023-09-18T10:36:08;25.10;99.90
11304;DHT22;5707;49.588;12.148;2023-09-18T10:38:35;25.20;99.90
11304;DHT22;5707;49.588;12.148;2023-09-18T10:41:03;25.40;99.90
11304;DHT22;5707;49.588;12.148;2023-09-18T10:43:30;25.40;99.90
11304;DHT22;5707;49.588;12.148;2023-09-18T10:45:56;25.30;99.90
11304;DHT22;5707;49.588;12.148;2023-09-18T10:48:22;25.20;99.90
11304;DHT22;5707;49.588;12.148;2023-09-18T10:50:50;25.10;99.90
11304;DHT22;5707;49.588;12.148;2023-09-18T10:53:18;25.10;99.90
11304;DHT22;5707;49.588;12.148;2023-09-18T10:55:45;25.20;99.90
11304;DHT22;5707;49.588;12.148;2023-09-18T10:58:11;25.40;99.90
11304;DHT22;5707;49.588;12.148;2023-09-18T11:00:37;25.60;99.90
11304;DHT22;5707;49.588;12.148;2023-09-18T11:03:16;25.70;99.90
11304;DHT22;5707;49.588;12.148;2023-09-18T11:05:44;25.90;99.90
11304;DHT22;5707;49.588;12.148;2023-09-18T11:08:27;26.10;99.90
11304;DHT22;5707;49.588;12.148;2023-09-18T11:13:36;26.80;99.90
11304;DHT22;5707;49.588;12.148;2023-09-18T11:21:29;28.30;94.90
11304;DHT22;5707;49.588;12.148;2023-09-18T11:24:06;28.50;93.10
11304;DHT22;5707;49.588;12.148;2023-09-18T11:26:36;28.80;94.80
11304;DHT22;5707;49.588;12.148;2023-09-18T11:29:04;29.10;91.80
11304;DHT22;5707;49.588;12.148;2023-09-18T11:34:12;29.50;90.10
11304;DHT22;5707;49.588;12.148;2023-09-18T11:36:38;29.50;89.00
11304;DHT22;5707;49.588;12.148;2023-09-18T11:39:04;29.60;92.30
11304;DHT22;5707;49.588;12.148;2023-09-18T11:41:34;29.60;90.50
11304;DHT22;5707;49.588;12.148;2023-09-18T11:46:37;29.40;92.80
11304;DHT22;5707;49.588;12.148;2023-09-18T11:49:07;29.00;89.80
11304;DHT22;5707;49.588;12.148;2023-09-18T11:51:32;28.50;89.20
11304;DHT22;5707;49.588;12.148;2023-09-18T11:54:01;28.10;90.70
11304;DHT22;5707;49.588;12.148;2023-09-18T11:56:29;28.00;90.80
11304;DHT22;5707;49.588;12.148;2023-09-18T11:58:55;27.90;91.60
11304;DHT22;5707;49.588;12.148;2023-09-18T12:01:21;27.80;94.00
11304;DHT22;5707;49.588;12.148;2023-09-18T12:03:54;27.60;93.50
11304;DHT22;5707;49.588;12.148;2023-09-18T12:06:20;27.70;96.30
11304;DHT22;5707;49.588;12.148;2023-09-18T12:08:46;27.60;92.10
11304;DHT22;5707;49.588;12.148;2023-09-18T12:11:13;27.70;93.90
11304;DHT22;5707;49.588;12.148;2023-09-18T12:13:43;27.70;94.40
11304;DHT22;5707;49.588;12.148;2023-09-18T12:16:08;28.00;91.80
11304;DHT22;5707;49.588;12.148;2023-09-18T12:18:35;28.00;91.20
11304;DHT22;5707;49.588;12.148;2023-09-18T12:21:06;28.20;92.50
11304;DHT22;5707;49.588;12.148;2023-09-18T12:23:42;28.30;91.80
11304;DHT22;5707;49.588;12.148;2023-09-18T12:26:11;28.50;90.30
11304;DHT22;5707;49.588;12.148;2023-09-18T12:28:39;28.60;90.70
11304;DHT22;5707;49.588;12.148;2023-09-18T12:31:04;28.80;92.80
11304;DHT22;5707;49.588;12.148;2023-09-18T12:33:34;29.00;92.80
11304;DHT22;5707;49.588;12.148;2023-09-18T12:36:01;29.10;87.60
11304;DHT22;5707;49.588;12.148;2023-09-18T12:38:26;29.00;89.50
11304;DHT22;5707;49.588;12.148;2023-09-18T12:40:54;28.70;88.10
11304;DHT22;5707;49.588;12.148;2023-09-18T12:43:20;28.30;91.00
11304;DHT22;5707;49.588;12.148;2023-09-18T12:45:51;28.00;92.50
11304;DHT22;5707;49.588;12.148;2023-09-18T12:48:18;27.70;95.00
11304;DHT22;5707;49.588;12.148;2023-09-18T12:50:43;27.50;96.00
11304;DHT22;5707;49.588;12.148;2023-09-18T12:53:11;27.40;96.50
11304;DHT22;5707;49.588;12.148;2023-09-18T12:55:38;27.30;97.00
11304;DHT22;5707;49.588;12.148;2023-09-18T12:58:04;27.20;99.10
11304;DHT22;5707;49.588;12.148;2023-09-18T13:00:34;27.00;96.10
11304;DHT22;5707;49.588;12.148;2023-09-18T13:03:01;26.60;97.20
11304;DHT22;5707;49.588;12.148;2023-09-18T13:05:30;26.40;97.90
11304;DHT22;5707;49.588;12.148;2023-09-18T13:08:04;26.30;99.90
11304;DHT22;5707;49.588;12.148;2023-09-18T13:10:48;26.30;99.90
11304;DHT22;5707;49.588;12.148;2023-09-18T13:13:20;26.10;99.90
11304;DHT22;5707;49.588;12.148;2023-09-18T13:15:47;26.20;99.90
11304;DHT22;5707;49.588;12.148;2023-09-18T13:18:15;26.30;99.90
11304;DHT22;5707;49.588;12.148;2023-09-18T13:20:41;26.50;99.90
11304;DHT22;5707;49.588;12.148;2023-09-18T13:23:08;26.60;99.90
11304;DHT22;5707;49.588;12.148;2023-09-18T13:25:39;26.60;99.90
11304;DHT22;5707;49.588;12.148;2023-09-18T13:28:07;26.30;99.90
11304;DHT22;5707;49.588;12.148;2023-09-18T13:30:36;25.80;99.90
11304;DHT22;5707;49.588;12.148;2023-09-18T13:33:06;25.60;99.90
11304;DHT22;5707;49.588;12.148;2023-09-18T13:35:33;25.40;99.90
11304;DHT22;5707;49.588;12.148;2023-09-18T13:37:59;25.30;99.90
11304;DHT22;5707;49.588;12.148;2023-09-18T13:40:25;25.10;99.90
11304;DHT22;5707;49.588;12.148;2023-09-18T13:42:50;25.00;99.90
11304;DHT22;5707;49.588;12.148;2023-09-18T13:45:16;24.80;99.90
11304;DHT22;5707;49.588;12.148;2023-09-18T13:47:42;24.70;99.90
11304;DHT22;5707;49.588;12.148;2023-09-18T13:50:08;24.60;99.90
11304;DHT22;5707;49.588;12.148;2023-09-18T13:52:35;24.20;99.90
11304;DHT22;5707;49.588;12.148;2023-09-18T13:55:03;23.80;99.90
11304;DHT22;5707;49.588;12.148;2023-09-18T13:57:31;23.60;99.90
11304;DHT22;5707;49.588;12.148;2023-09-18T13:59:57;23.40;99.90
11304;DHT22;5707;49.588;12.148;2023-09-18T14:02:22;23.10;99.90
11304;DHT22;5707;49.588;12.148;2023-09-18T14:04:52;22.80;99.90
11304;DHT22;5707;49.588;12.148;2023-09-18T14:07:18;22.50;99.90
11304;DHT22;5707;49.588;12.148;2023-09-18T14:09:44;22.20;99.90
11304;DHT22;5707;49.588;12.148;2023-09-18T14:12:11;21.90;99.90
11304;DHT22;5707;49.588;12.148;2023-09-18T14:14:37;21.60;99.90
11304;DHT22;5707;49.588;12.148;2023-09-18T14:17:04;21.30;99.90
11304;DHT22;5707;49.588;12.148;2023-09-18T14:19:30;21.00;99.90
11304;DHT22;5707;49.588;12.148;2023-09-18T14:21:55;20.70;99.90
11304;DHT22;5707;49.588;12.148;2023-09-18T14:24:21;20.30;99.90
11304;DHT22;5707;49.588;12.148;2023-09-18T14:26:51;19.90;99.90
11304;DHT22;5707;49.588;12.148;2023-09-18T14:29:17;19.70;99.90
11304;DHT22;5707;49.588;12.148;2023-09-18T14:31:42;19.50;99.90
11304;DHT22;5707;49.588;12.148;2023-09-18T14:34:09;19.50;99.90
11304;DHT22;5707;49.588;12.148;2023-09-18T14:36:35;19.50;99.90
11304;DHT22;5707;49.588;12.148;2023-09-18T14:39:01;19.50;99.90
11304;DHT22;5707;49.588;12.148;2023-09-18T14:41:28;19.40;99.90
11304;DHT22;5707;49.588;12.148;2023-09-18T14:43:53;19.40;99.90
11304;DHT22;5707;49.588;12.148;2023-09-18T14:46:19;19.30;99.90
11304;DHT22;5707;49.588;12.148;2023-09-18T14:48:46;19.20;99.90
11304;DHT22;5707;49.588;12.148;2023-09-18T14:51:11;19.20;99.90
11304;DHT22;5707;49.588;12.148;2023-09-18T14:53:37;19.10;99.90
11304;DHT22;5707;49.588;12.148;2023-09-18T14:56:03;19.10;99.90
11304;DHT22;5707;49.588;12.148;2023-09-18T14:58:30;19.00;99.90
11304;DHT22;5707;49.588;12.148;2023-09-18T15:00:57;18.90;99.90
11304;DHT22;5707;49.588;12.148;2023-09-18T15:03:22;18.90;99.90
11304;DHT22;5707;49.588;12.148;2023-09-18T15:05:50;18.80;99.90
11304;DHT22;5707;49.588;12.148;2023-09-18T15:08:16;18.70;99.90
11304;DHT22;5707;49.588;12.148;2023-09-18T15:10:43;18.70;99.90
11304;DHT22;5707;49.588;12.148;2023-09-18T15:13:09;18.70;99.90
11304;DHT22;5707;49.588;12.148;2023-09-18T15:15:34;18.60;99.90
11304;DHT22;5707;49.588;12.148;2023-09-18T15:18:01;18.50;99.90
11304;DHT22;5707;49.588;12.148;2023-09-18T15:20:27;18.50;99.90
11304;DHT22;5707;49.588;12.148;2023-09-18T15:22:52;18.50;99.90
11304;DHT22;5707;49.588;12.148;2023-09-18T15:25:21;18.60;99.90
11304;DHT22;5707;49.588;12.148;2023-09-18T15:27:47;18.60;99.90
11304;DHT22;5707;49.588;12.148;2023-09-18T15:30:12;18.70;99.90
11304;DHT22;5707;49.588;12.148;2023-09-18T15:32:48;18.60;99.90
11304;DHT22;5707;49.588;12.148;2023-09-18T15:35:19;18.60;99.90
11304;DHT22;5707;49.588;12.148;2023-09-18T15:37:44;18.50;99.90
11304;DHT22;5707;49.588;12.148;2023-09-18T15:40:10;18.50;99.90
11304;DHT22;5707;49.588;12.148;2023-09-18T15:42:38;18.50;99.90
11304;DHT22;5707;49.588;12.148;2023-09-18T15:45:08;18.40;99.90
11304;DHT22;5707;49.588;12.148;2023-09-18T15:47:39;18.40;99.90
11304;DHT22;5707;49.588;12.148;2023-09-18T15:50:06;18.30;99.90